Time;durP1;ratioP1;P1;durP2;ratioP2;P2;SDS_P1;SDS_P2;PMS_P1;PMS_P2;Temp;Humidity;BMP_temperature;BMP_pressure;BME280_temperature;BME280_humidity;BME280_pressure;Samples;Min_cycle;Max_cycle;Signal;HPM_P1;HPM_P2
2022/06/18 00:02:24;;;;;;;9.33;5.67;;;;;;;24.06;74.90;100681.60;1650792;85;21542;-71
2022/06/18 00:04:53;;;;;;;8.85;5.92;;;;;;;24.06;75.19;100681.60;1647065;86;21055;-71
2022/06/18 00:07:22;;;;;;;9.90;5.62;;;;;;;24.35;74.10;100677.38;1650546;86;21558;-71
2022/06/18 00:09:57;;;;;;;8.95;5.90;;;;;;;24.13;73.87;100686.61;1648679;85;21054;-72
2022/06/18 00:15:19;;;;;;;10.80;6.55;;;;;;;24.17;74.34;100674.81;1649868;85;21526;-71
2022/06/18 00:17:48;;;;;;;;;;;;;;;24.22;74.09;100676.97;1647254;85;21078;-71
2022/06/18 00:20:17;;;;;;;9.65;6.33;;;;;;;24.31;73.71;100674.72;1645038;85;20106;-71
2022/06/18 00:22:50;;;;;;;10.10;6.22;;;;;;;24.24;73.93;100669.75;1655078;85;21554;-71
2022/06/18 00:25:25;;;;;;;8.98;6.80;;;;;;;24.43;73.26;100676.63;1649549;85;21543;-71
2022/06/18 00:27:55;;;;;;;9.15;6.62;;;;;;;24.44;73.26;100680.42;1646864;85;21563;-71
2022/06/18 00:30:26;;;;;;;11.05;6.58;;;;;;;24.54;73.51;100676.41;1654107;85;21090;-71
2022/06/18 00:32:53;;;;;;;8.53;5.97;;;;;;;24.65;73.37;100670.06;1652081;85;21095;-72
2022/06/18 00:35:22;;;;;;;8.63;6.20;;;;;;;24.46;74.41;100678.47;1645492;86;21103;-71
2022/06/18 00:37:54;;;;;;;9.03;5.95;;;;;;;24.51;75.25;100674.08;1648473;85;21019;-71
2022/06/18 00:40:37;;;;;;;8.03;6.10;;;;;;;24.49;76.03;100675.51;1652632;85;21105;-71
2022/06/18 00:43:15;;;;;;;6.28;5.15;;;;;;;24.47;76.68;100665.62;1648439;85;21027;-71
2022/06/18 00:45:43;;;;;;;7.72;5.17;;;;;;;24.46;77.22;100669.25;1648568;86;21070;-71
2022/06/18 00:48:31;;;;;;;9.23;5.10;;;;;;;24.24;77.58;100661.86;1645949;86;21114;-71
2022/06/18 00:51:14;;;;;;;6.00;4.97;;;;;;;24.18;77.90;100662.80;1650514;85;21110;-71
2022/06/18 00:53:49;;;;;;;7.22;5.10;;;;;;;24.08;77.71;100668.63;1637160;86;21035;-71
2022/06/18 00:56:41;;;;;;;9.23;5.05;;;;;;;23.94;78.50;100669.98;1644163;86;21098;-71
2022/06/18 00:59:31;;;;;;;6.42;5.40;;;;;;;23.87;79.68;100670.77;1645540;86;21554;-71
2022/06/18 01:02:01;;;;;;;9.60;6.12;;;;;;;23.88;79.37;100666.64;1638772;86;21020;-71
2022/06/18 01:04:35;;;;;;;5.97;5.37;;;;;;;23.82;79.65;100665.11;1644836;87;21527;-71
2022/06/18 01:07:16;;;;;;;6.10;5.25;;;;;;;23.75;79.72;100668.81;1648957;85;21086;-71
2022/06/18 01:09:48;;;;;;;11.75;5.85;;;;;;;23.77;79.65;100670.83;1651017;85;21039;-71
2022/06/18 01:12:16;;;;;;;10.90;5.92;;;;;;;23.66;80.32;100677.11;1649182;85;21055;-71
2022/06/18 01:14:45;;;;;;;11.20;6.12;;;;;;;23.56;80.78;100682.88;1648038;86;21082;-70
2022/06/18 01:17:13;;;;;;;6.42;5.33;;;;;;;23.55;80.99;100680.75;1643291;86;21519;-70
2022/06/18 01:19:45;;;;;;;8.93;5.75;;;;;;;23.59;80.77;100686.05;1625868;87;21598;-71
2022/06/18 01:22:37;;;;;;;7.90;5.90;;;;;;;23.58;80.77;100684.41;1645893;86;21500;-71
2022/06/18 01:25:07;;;;;;;9.28;5.70;;;;;;;23.69;81.09;100675.98;1636274;87;21067;-71
2022/06/18 01:27:38;;;;;;;10.70;5.62;;;;;;;23.76;80.19;100678.33;1635283;86;21097;-71
2022/06/18 01:30:14;;;;;;;8.23;5.87;;;;;;;23.75;80.46;100685.39;1637516;86;21087;-71
2022/06/18 01:32:44;;;;;;;7.80;5.67;;;;;;;23.76;80.58;100681.80;1625439;87;21110;-71
2022/06/18 01:35:12;;;;;;;10.40;5.50;;;;;;;23.78;80.94;100682.98;1644406;87;21067;-71
2022/06/18 01:37:42;;;;;;;8.85;5.58;;;;;;;23.81;81.21;100680.06;1642468;86;21047;-71
2022/06/18 01:40:15;;;;;;;9.40;6.03;;;;;;;23.85;81.18;100680.11;1637864;86;21106;-71
2022/06/18 01:42:46;;;;;;;10.35;6.05;;;;;;;23.83;81.15;100676.80;1650471;86;21039;-71
2022/06/18 01:45:25;;;;;;;8.25;5.70;;;;;;;23.93;81.34;100684.13;1627736;86;21503;-71
2022/06/18 01:48:04;;;;;;;10.48;6.17;;;;;;;23.89;81.89;100672.75;1628449;85;21479;-71
2022/06/18 01:50:40;;;;;;;9.23;5.72;;;;;;;24.01;82.59;100680.75;1623823;86;21118;-71
2022/06/18 01:53:33;;;;;;;9.18;6.00;;;;;;;24.14;81.94;100677.23;1645764;85;21110;-71
2022/06/18 01:56:24;;;;;;;10.32;6.03;;;;;;;24.20;81.31;100676.62;1654371;85;21015;-71
2022/06/18 01:59:09;;;;;;;7.33;6.00;;;;;;;24.42;81.29;100675.80;1653036;85;21067;-71
2022/06/18 02:01:43;;;;;;;8.78;5.72;;;;;;;24.46;80.29;100682.91;1639009;86;21028;-70
2022/06/18 02:04:14;;;;;;;10.75;6.00;;;;;;;24.45;80.52;100688.64;1644573;86;21078;-70
2022/06/18 02:06:43;;;;;;;8.40;5.83;;;;;;;24.36;81.22;100689.58;1653483;85;21062;-70
2022/06/18 02:09:37;;;;;;;8.30;5.30;;;;;;;24.17;82.20;100692.72;1648435;85;21054;-70
2022/06/18 02:12:10;;;;;;;10.57;6.27;;;;;;;24.14;81.97;100697.45;1643083;86;21537;-71
2022/06/18 02:14:41;;;;;;;8.53;6.20;;;;;;;24.09;82.77;100696.59;1639011;86;21560;-71
2022/06/18 02:17:17;;;;;;;8.15;6.05;;;;;;;24.07;83.47;100693.76;1641415;86;21058;-70
2022/06/18 02:19:47;;;;;;;12.03;6.20;;;;;;;24.12;83.08;100696.77;1643700;85;21552;-70
2022/06/18 02:22:16;;;;;;;8.78;5.75;;;;;;;24.13;83.00;100698.45;1645513;87;21592;-70
2022/06/18 02:24:43;;;;;;;9.40;6.00;;;;;;;24.28;82.58;100698.72;1651045;85;21082;-70
2022/06/18 02:27:16;;;;;;;8.05;6.00;;;;;;;24.43;81.48;100692.41;1647578;86;21011;-70
2022/06/18 02:29:46;;;;;;;11.08;6.15;;;;;;;24.42;82.82;100688.14;1647339;86;21528;-70
2022/06/18 02:32:33;;;;;;;14.30;6.72;;;;;;;24.46;81.26;100686.36;1646827;85;21059;-70
2022/06/18 02:35:14;;;;;;;11.80;5.97;;;;;;;24.56;81.03;100690.24;1649761;85;21047;-70
2022/06/18 02:37:43;;;;;;;9.35;6.60;;;;;;;24.54;81.07;100689.58;1649678;86;21091;-70
2022/06/18 02:40:21;;;;;;;7.80;6.37;;;;;;;24.72;80.74;100694.30;1650157;87;21097;-70
2022/06/18 02:42:51;;;;;;;8.60;5.95;;;;;;;24.77;80.99;100693.82;1646643;86;21118;-70
2022/06/18 02:45:21;;;;;;;9.13;6.20;;;;;;;24.78;81.67;100699.44;1651038;85;21019;-70
2022/06/18 02:47:50;;;;;;;9.00;6.92;;;;;;;24.69;81.74;100699.03;1647307;85;21127;-70
2022/06/18 02:50:22;;;;;;;9.38;6.40;;;;;;;24.62;81.48;100696.20;1649059;85;21110;-70
2022/06/18 02:52:55;;;;;;;7.67;6.05;;;;;;;24.88;80.86;100701.94;1644231;86;21035;-70
2022/06/18 02:55:40;;;;;;;9.80;5.97;;;;;;;24.99;80.99;100701.17;1642859;86;21086;-70
2022/06/18 02:58:20;;;;;;;8.53;6.47;;;;;;;25.09;80.38;100706.83;1647747;86;21070;-70
2022/06/18 03:00:53;;;;;;;10.08;6.90;;;;;;;25.10;80.19;100702.73;1642876;86;21102;-70
2022/06/18 03:03:24;;;;;;;12.13;6.40;;;;;;;25.00;79.96;100709.93;1625122;86;21035;-70
2022/06/18 03:05:52;;;;;;;12.68;6.90;;;;;;;25.02;80.91;100707.12;1644538;86;21166;-70
2022/06/18 03:08:22;;;;;;;8.75;6.95;;;;;;;25.05;81.40;100707.63;1644443;86;21050;-70
2022/06/18 03:13:38;;;;;;;8.53;6.58;;;;;;;25.18;81.57;100705.41;1649002;85;21625;-70
2022/06/18 03:16:10;;;;;;;10.10;6.75;;;;;;;25.18;81.61;100707.19;1646455;86;21111;-70
2022/06/18 03:18:40;;;;;;;8.28;6.65;;;;;;;24.99;81.09;100715.66;1650590;85;21055;-70
2022/06/18 03:21:41;;;;;;;12.80;6.87;;;;;;;25.11;80.74;100714.09;1596944;89;21525;-70
2022/06/18 03:24:10;;;;;;;13.38;7.40;;;;;;;25.16;80.08;100717.06;1604186;88;21568;-70
2022/06/18 03:26:38;;;;;;;13.50;8.33;;;;;;;25.27;79.56;100720.77;1604989;88;21001;-70
2022/06/18 03:29:08;;;;;;;14.13;7.85;;;;;;;25.18;80.48;100730.90;1594237;88;21037;-70
2022/06/18 03:31:36;;;;;;;10.43;7.67;;;;;;;25.30;80.68;100736.25;1594319;88;21075;-71
2022/06/18 03:34:04;;;;;;;12.93;8.78;;;;;;;25.23;80.95;100730.48;1600208;87;21543;-71
2022/06/18 03:36:32;;;;;;;16.25;9.35;;;;;;;25.33;80.62;100732.00;1596442;88;21097;-71
2022/06/18 03:39:00;;;;;;;20.77;9.68;;;;;;;25.28;80.65;100733.45;1599609;89;21611;-70
2022/06/18 03:41:28;;;;;;;15.53;9.65;;;;;;;25.23;80.75;100734.44;1599387;87;21088;-71
2022/06/18 03:43:56;;;;;;;16.27;9.05;;;;;;;25.29;80.78;100733.30;1599669;88;21080;-71
2022/06/18 03:46:25;;;;;;;14.47;9.40;;;;;;;25.38;80.04;100732.36;1597095;88;21091;-71
2022/06/18 03:49:01;;;;;;;16.10;9.90;;;;;;;25.58;77.86;100728.95;1594515;88;21049;-70
2022/06/18 03:51:31;;;;;;;14.78;9.33;;;;;;;25.65;77.89;100729.63;1600224;88;21071;-70
2022/06/18 03:54:00;;;;;;;16.05;9.25;;;;;;;26.05;76.51;100733.36;1604640;88;21072;-70
2022/06/18 03:56:31;;;;;;;14.80;9.55;;;;;;;26.13;75.51;100737.33;1604694;88;21108;-70
2022/06/18 03:59:00;;;;;;;13.32;9.35;;;;;;;26.17;76.08;100731.55;1652871;85;21069;-70
2022/06/18 04:01:31;;;;;;;17.40;10.15;;;;;;;26.05;76.79;100738.64;1634745;86;21011;-70
2022/06/18 04:04:01;;;;;;;14.18;8.53;;;;;;;26.39;76.37;100737.17;1646391;86;21022;-70
2022/06/18 04:06:33;;;;;;;12.25;7.83;;;;;;;26.48;74.99;100733.55;1644429;85;21086;-70
2022/06/18 04:09:03;;;;;;;15.35;8.90;;;;;;;26.57;74.24;100727.77;1648509;85;21578;-70
2022/06/18 04:11:34;;;;;;;18.35;8.25;;;;;;;26.87;73.66;100726.76;1650131;85;21074;-71
2022/06/18 04:14:03;;;;;;;11.25;7.50;;;;;;;27.17;72.72;100727.83;1648880;87;21079;-71
2022/06/18 04:16:35;;;;;;;13.13;8.25;;;;;;;27.38;71.48;100720.66;1652454;86;21044;-70
2022/06/18 04:19:05;;;;;;;12.58;7.45;;;;;;;27.53;70.78;100723.38;1652753;85;21055;-71
2022/06/18 04:21:34;;;;;;;15.25;7.62;;;;;;;27.48;70.78;100726.55;1646173;86;21047;-71
2022/06/18 04:24:02;;;;;;;12.03;7.25;;;;;;;27.32;71.08;100726.13;1647832;86;21054;-71
2022/06/18 04:26:30;;;;;;;12.55;7.67;;;;;;;27.32;70.62;100738.52;1643590;86;21098;-71
2022/06/18 04:28:58;;;;;;;12.93;7.20;;;;;;;27.12;71.34;100738.88;1641001;87;21086;-70
2022/06/18 04:31:26;;;;;;;11.00;7.60;;;;;;;27.22;71.68;100733.91;1642659;86;21106;-71
2022/06/18 04:33:55;;;;;;;12.58;7.40;;;;;;;27.52;71.45;100741.07;1627209;87;21048;-70
2022/06/18 04:36:37;;;;;;;10.53;7.53;;;;;;;27.63;71.08;100745.64;1641761;86;21063;-71
2022/06/18 04:39:10;;;;;;;9.80;7.00;;;;;;;27.85;70.69;100751.46;1619063;86;21079;-70
2022/06/18 04:41:41;;;;;;;11.03;6.47;;;;;;;27.78;71.56;100747.38;1647367;86;21069;-71
2022/06/18 04:44:18;;;;;;;8.40;6.10;;;;;;;28.08;69.79;100746.23;1641112;86;21174;-70
2022/06/18 04:46:49;;;;;;;8.73;6.20;;;;;;;27.87;69.62;100750.81;1637519;86;21106;-71
2022/06/18 04:49:16;;;;;;;15.30;6.55;;;;;;;27.95;69.92;100756.56;1641168;86;21067;-71
2022/06/18 04:51:43;;;;;;;10.48;7.10;;;;;;;27.86;69.84;100750.48;1639335;86;21051;-71
2022/06/18 04:54:11;;;;;;;8.23;6.87;;;;;;;27.83;70.20;100749.49;1636723;86;21496;-71
2022/06/18 04:56:39;;;;;;;12.93;7.25;;;;;;;27.80;70.44;100747.21;1642742;86;21531;-70
2022/06/18 04:59:07;;;;;;;9.20;6.10;;;;;;;27.83;70.66;100755.29;1647148;85;21583;-70
2022/06/18 05:01:35;;;;;;;10.93;5.90;;;;;;;27.71;71.43;100755.67;1643462;87;21516;-71
2022/06/18 05:04:08;;;;;;;10.08;5.75;;;;;;;27.59;70.67;100753.09;1585176;87;21063;-70
2022/06/18 05:06:38;;;;;;;7.85;5.05;;;;;;;28.04;70.27;100754.67;1645308;86;21169;-71
2022/06/18 05:09:05;;;;;;;9.98;5.35;;;;;;;28.02;69.17;100756.67;1643563;86;21547;-70
2022/06/18 05:11:47;;;;;;;11.97;4.95;;;;;;;28.00;69.38;100753.38;1651096;85;21055;-70
2022/06/18 05:14:23;;;;;;;9.53;4.80;;;;;;;28.16;68.58;100753.27;1655742;85;21551;-70
2022/06/18 05:17:02;;;;;;;11.28;4.80;;;;;;;28.44;67.79;100757.51;1651256;85;21062;-71
2022/06/18 05:19:34;;;;;;;9.25;5.30;;;;;;;28.50;67.27;100761.30;1647952;85;21047;-70
2022/06/18 05:22:04;;;;;;;10.32;4.87;;;;;;;28.60;67.35;100753.92;1647044;86;21078;-70
2022/06/18 05:24:33;;;;;;;8.75;5.05;;;;;;;28.56;66.73;100760.08;1646153;86;21047;-70
2022/06/18 05:27:03;;;;;;;5.70;4.80;;;;;;;28.57;66.88;100764.89;1647462;85;21102;-71
2022/06/18 05:29:31;;;;;;;6.25;4.80;;;;;;;28.79;66.36;100768.47;1646735;85;21023;-70
2022/06/18 05:31:58;;;;;;;12.07;4.80;;;;;;;28.73;66.98;100763.89;1648163;85;21059;-70
2022/06/18 05:34:27;;;;;;;9.78;4.80;;;;;;;28.69;66.33;100761.28;1649114;85;21066;-71
2022/06/18 05:36:55;;;;;;;8.00;4.97;;;;;;;28.76;66.45;100760.39;1648124;86;21031;-70
2022/06/18 05:39:24;;;;;;;7.10;5.12;;;;;;;29.06;65.12;100759.60;1651441;85;21098;-70
2022/06/18 05:41:51;;;;;;;6.50;4.97;;;;;;;29.08;64.26;100754.43;1650978;85;21122;-70
2022/06/18 05:44:18;;;;;;;6.35;4.70;;;;;;;29.17;65.30;100757.83;1653934;85;21110;-70
2022/06/18 05:46:46;;;;;;;13.05;5.45;;;;;;;29.05;66.40;100761.92;1647344;85;21074;-70
2022/06/18 05:49:15;;;;;;;8.83;5.03;;;;;;;29.49;64.03;100759.26;1637360;86;21570;-71
2022/06/18 05:51:43;;;;;;;7.20;4.70;;;;;;;29.54;62.86;100756.88;1636618;87;21235;-71
2022/06/18 05:54:11;;;;;;;6.92;4.60;;;;;;;29.79;62.56;100765.05;1638352;86;21552;-70
2022/06/18 05:56:46;;;;;;;5.75;4.67;;;;;;;29.94;62.46;100761.31;1636705;86;21039;-71
2022/06/18 05:59:15;;;;;;;5.80;4.67;;;;;;;29.59;62.28;100759.48;1640488;86;21114;-70
2022/06/18 06:01:44;;;;;;;6.60;4.55;;;;;;;29.70;64.23;100765.10;1646447;86;21079;-71
2022/06/18 06:04:12;;;;;;;8.83;4.83;;;;;;;30.05;61.82;100770.62;1651815;85;21137;-70
2022/06/18 06:06:39;;;;;;;7.00;4.60;;;;;;;30.09;61.96;100767.91;1636762;86;21102;-71
2022/06/18 06:09:07;;;;;;;5.80;4.70;;;;;;;30.07;61.71;100765.95;1650232;86;21058;-71
2022/06/18 06:11:38;;;;;;;6.00;4.70;;;;;;;29.84;61.82;100764.77;1644058;85;21044;-71
2022/06/18 06:14:07;;;;;;;9.95;5.20;;;;;;;29.72;62.93;100761.78;1649432;87;21186;-71
2022/06/18 06:16:35;;;;;;;7.67;5.20;;;;;;;29.69;63.62;100763.98;1647712;86;21059;-71
2022/06/18 06:19:04;;;;;;;6.75;4.87;;;;;;;29.89;62.66;100765.05;1653683;85;21067;-71
2022/06/18 06:21:32;;;;;;;7.15;5.53;;;;;;;29.94;64.12;100769.78;1668002;83;21031;-71
2022/06/18 06:23:59;;;;;;;10.00;5.72;;;;;;;29.55;63.18;100762.49;1664154;84;21574;-70
2022/06/18 06:26:30;;;;;;;10.75;5.70;;;;;;;29.58;64.13;100759.15;1666679;84;21665;-71
2022/06/18 06:28:59;;;;;;;13.85;6.45;;;;;;;29.63;62.71;100763.41;1671283;83;21582;-71
2022/06/18 06:31:26;;;;;;;10.08;6.53;;;;;;;29.68;63.22;100759.16;1665080;84;21015;-71
2022/06/18 06:33:54;;;;;;;8.40;6.08;;;;;;;30.03;61.58;100759.86;1671771;84;21091;-71
2022/06/18 06:36:21;;;;;;;8.80;6.67;;;;;;;30.16;61.23;100760.81;1655203;85;21042;-71
2022/06/18 06:38:49;;;;;;;12.90;6.90;;;;;;;30.33;60.72;100772.52;1672071;84;21219;-71
2022/06/18 06:41:21;;;;;;;12.15;6.47;;;;;;;30.33;60.72;100772.52;1677684;84;21083;-71
2022/06/18 06:43:51;;;;;;;10.15;6.45;;;;;;;30.30;61.40;100764.95;1670987;84;21562;-72
2022/06/18 06:46:18;;;;;;;10.82;6.53;;;;;;;30.47;60.27;100766.30;1674263;85;21006;-71
2022/06/18 06:48:46;;;;;;;14.78;6.67;;;;;;;30.81;60.11;100764.72;1662377;85;21028;-71
2022/06/18 06:51:17;;;;;;;11.40;6.37;;;;;;;30.81;60.11;100764.72;1681994;83;21091;-72
2022/06/18 06:53:44;;;;;;;12.50;6.50;;;;;;;31.04;58.29;100770.30;1689005;84;21047;-72
2022/06/18 06:59:00;;;;;;;10.68;6.70;;;;;;;31.25;57.33;100765.41;1684235;84;21079;-72
2022/06/18 07:01:28;;;;;;;9.13;6.50;;;;;;;31.47;55.80;100764.30;1693165;84;21007;-72
2022/06/18 07:03:55;;;;;;;8.73;6.22;;;;;;;31.36;55.10;100766.16;1688316;83;21092;-72
2022/06/18 07:06:23;;;;;;;8.63;6.37;;;;;;;31.47;53.76;100757.66;1690983;84;21146;-72
2022/06/18 07:08:50;;;;;;;11.33;6.72;;;;;;;31.38;54.49;100759.32;1690931;84;21137;-72
2022/06/18 07:11:19;;;;;;;9.95;7.05;;;;;;;31.29;54.36;100756.02;1692747;83;21087;-72
2022/06/18 07:13:48;;;;;;;7.00;6.20;;;;;;;31.25;54.91;100763.56;1689839;84;21094;-72
2022/06/18 07:16:16;;;;;;;11.10;6.85;;;;;;;31.32;52.31;100759.59;1694400;83;21059;-72
2022/06/18 07:18:44;;;;;;;8.15;6.05;;;;;;;31.73;53.14;100764.06;1692188;84;21052;-72
2022/06/18 07:21:15;;;;;;;11.78;6.50;;;;;;;31.79;54.31;100763.25;1690167;84;21075;-72
2022/06/18 07:23:43;;;;;;;8.83;6.08;;;;;;;32.16;51.83;100760.27;1685512;83;21021;-71
2022/06/18 07:26:15;;;;;;;7.30;5.42;;;;;;;32.28;50.83;100768.80;1687161;83;20995;-72
2022/06/18 07:28:43;;;;;;;7.00;5.45;;;;;;;32.63;49.02;100767.79;1689109;83;21039;-72
2022/06/18 07:31:25;;;;;;;9.88;5.22;;;;;;;32.72;48.53;100766.53;1690258;83;21039;-72
2022/06/18 07:33:52;;;;;;;9.93;5.25;;;;;;;33.38;48.39;100767.41;1691664;84;20989;-72
2022/06/18 07:36:19;;;;;;;6.37;4.90;;;;;;;33.19;48.84;100772.59;1693589;83;21350;-72
2022/06/18 07:38:46;;;;;;;8.05;5.17;;;;;;;33.66;47.52;100769.25;1689391;83;21016;-72
2022/06/18 07:41:17;;;;;;;6.72;4.90;;;;;;;33.69;46.28;100772.80;1695014;83;20992;-72
2022/06/18 07:43:52;;;;;;;9.78;5.15;;;;;;;33.88;46.57;100764.88;1692887;84;21039;-72
2022/06/18 07:46:21;;;;;;;7.40;4.85;;;;;;;33.75;46.75;100769.80;1686924;83;21087;-72
2022/06/18 07:48:48;;;;;;;6.87;4.62;;;;;;;33.49;46.88;100770.20;1690770;84;21051;-72
2022/06/18 07:51:15;;;;;;;5.58;4.33;;;;;;;33.64;48.43;100765.97;1686590;83;21544;-72
2022/06/18 07:53:43;;;;;;;6.30;4.12;;;;;;;33.68;47.30;100765.00;1693564;84;21026;-72
2022/06/18 07:56:16;;;;;;;3.90;3.50;;;;;;;33.72;47.63;100771.58;1689700;83;21121;-72
2022/06/18 07:58:43;;;;;;;6.10;4.22;;;;;;;33.58;45.08;100773.96;1691907;83;21531;-72
2022/06/18 08:01:12;;;;;;;6.85;4.40;;;;;;;33.80;45.95;100763.81;1690846;83;21055;-72
2022/06/18 08:03:39;;;;;;;5.75;4.20;;;;;;;34.44;45.31;100766.75;1683823;83;21032;-72
2022/06/18 08:06:07;;;;;;;6.28;4.30;;;;;;;34.24;43.60;100764.77;1696063;84;21072;-72
2022/06/18 08:08:34;;;;;;;8.25;4.42;;;;;;;34.39;44.18;100761.26;1689080;83;21067;-73
2022/06/18 08:11:13;;;;;;;4.22;3.70;;;;;;;34.37;45.41;100771.84;1690436;83;21055;-71
2022/06/18 08:13:41;;;;;;;6.67;4.20;;;;;;;34.01;42.40;100766.14;1688883;83;21067;-72
2022/06/18 08:16:13;;;;;;;5.53;3.80;;;;;;;34.40;43.81;100766.89;1691417;84;21115;-72
2022/06/18 08:18:45;;;;;;;4.47;3.65;;;;;;;35.07;44.18;100762.23;1681930;83;21051;-72
2022/06/18 08:21:17;;;;;;;5.10;3.62;;;;;;;35.50;43.07;100766.66;1685754;84;20992;-72
2022/06/18 08:23:47;;;;;;;5.12;3.72;;;;;;;35.18;42.15;100761.52;1688289;84;21110;-72
2022/06/18 08:26:15;;;;;;;5.65;3.80;;;;;;;35.27;44.07;100762.02;1690942;84;21172;-72
2022/06/18 08:28:42;;;;;;;6.85;3.10;;;;;;;34.95;43.02;100762.16;1685641;84;21074;-73
2022/06/18 08:31:11;;;;;;;5.45;2.87;;;;;;;35.03;41.42;100756.50;1650997;85;21020;-72
2022/06/18 08:33:40;;;;;;;4.60;3.05;;;;;;;34.90;42.64;100759.34;1647253;86;21603;-72
2022/06/18 08:36:11;;;;;;;3.40;3.10;;;;;;;35.14;41.65;100760.31;1640645;86;21027;-72
2022/06/18 08:38:41;;;;;;;4.00;3.02;;;;;;;35.40;42.32;100762.36;1650124;86;21090;-73
2022/06/18 08:41:28;;;;;;;4.87;3.27;;;;;;;35.70;42.43;100760.53;1642262;85;21095;-73
2022/06/18 08:44:04;;;;;;;3.75;2.90;;;;;;;36.03;41.36;100756.55;1650530;85;21566;-72
2022/06/18 08:46:57;;;;;;;4.10;2.85;;;;;;;36.18;40.49;100764.17;1644023;86;21071;-72
2022/06/18 08:49:51;;;;;;;3.20;2.90;;;;;;;35.76;40.94;100764.69;1632986;86;21090;-75
2022/06/18 08:53:04;;;;;;;4.53;2.65;;;;;;;34.89;41.26;100756.36;1616484;85;21035;-73
2022/06/18 08:56:00;;;;;;;3.27;2.80;;;;;;;34.68;40.89;100750.41;1648536;85;21653;-73
2022/06/18 08:58:44;;;;;;;3.95;2.62;;;;;;;34.72;42.12;100756.14;1650105;85;21082;-73
2022/06/18 09:01:29;;;;;;;3.20;2.85;;;;;;;34.70;42.56;100746.99;1648354;86;21125;-73
2022/06/18 09:04:22;;;;;;;5.03;2.75;;;;;;;34.21;41.58;100747.33;1644326;86;21068;-73
2022/06/18 09:07:37;;;;;;;4.55;2.90;;;;;;;34.45;41.45;100751.02;1645955;86;21091;-73
2022/06/18 09:10:31;;;;;;;4.80;2.70;;;;;;;34.97;39.10;100751.23;1644681;86;21078;-73
2022/06/18 09:13:11;;;;;;;2.70;2.50;;;;;;;34.95;39.67;100746.11;1643717;86;21086;-73
2022/06/18 09:15:47;;;;;;;3.25;2.60;;;;;;;34.65;40.82;100749.53;1685546;84;21056;-73
2022/06/18 09:18:34;;;;;;;3.90;2.83;;;;;;;34.79;41.37;100744.84;1689741;83;21526;-73
2022/06/18 09:21:14;;;;;;;5.20;2.70;;;;;;;34.88;40.61;100748.05;1688892;83;21502;-74
2022/06/18 09:23:52;;;;;;;3.90;2.77;;;;;;;34.85;38.86;100750.62;1694125;83;21095;-74
2022/06/18 09:26:24;;;;;;;4.08;2.30;;;;;;;35.07;39.68;100744.31;1693081;83;21679;-73
2022/06/18 09:29:18;;;;;;;5.08;2.50;;;;;;;34.89;41.23;100735.77;1688838;84;21070;-73
2022/06/18 09:31:54;;;;;;;3.42;2.50;;;;;;;35.10;43.20;100736.38;1671777;83;21059;-73
2022/06/18 09:34:36;;;;;;;5.10;2.60;;;;;;;35.14;42.56;100737.56;1686322;83;21552;-73
2022/06/18 09:37:12;;;;;;;5.08;2.60;;;;;;;34.65;41.48;100729.97;1690069;83;21049;-73
2022/06/18 09:39:43;;;;;;;3.42;2.30;;;;;;;34.52;41.86;100730.91;1691569;84;21608;-73
2022/06/18 09:42:21;;;;;;;;;;;;;;;34.24;40.50;100726.83;1689687;83;21020;-73
2022/06/18 09:44:59;;;;;;;5.67;2.50;;;;;;;34.28;42.07;100728.55;1680234;83;20215;-74
2022/06/18 09:47:37;;;;;;;3.00;2.50;;;;;;;34.19;41.19;100737.90;1688184;84;21083;-73
2022/06/18 09:50:16;;;;;;;4.75;2.70;;;;;;;34.19;41.52;100732.55;1688709;83;21045;-73
2022/06/18 09:52:48;;;;;;;6.65;3.02;;;;;;;34.25;40.61;100735.16;1690508;84;21043;-73
2022/06/18 09:55:39;;;;;;;5.45;2.95;;;;;;;34.40;41.25;100734.81;1687394;84;21036;-74
2022/06/18 09:58:11;;;;;;;4.55;2.50;;;;;;;34.34;39.32;100730.34;1688370;84;21531;-73
2022/06/18 10:00:40;;;;;;;4.15;2.95;;;;;;;34.57;39.70;100732.91;1692634;84;21090;-74
2022/06/18 10:09:04;;;;;;;2.77;2.58;;;;;;;34.84;37.56;100727.62;1693570;83;21097;-73
2022/06/18 10:11:32;;;;;;;5.62;2.70;;;;;;;34.97;39.71;100730.65;1691278;84;21094;-73
2022/06/18 10:14:21;;;;;;;2.90;2.50;;;;;;;34.73;39.97;100728.87;1688954;83;21004;-73
2022/06/18 10:17:15;;;;;;;2.67;2.40;;;;;;;34.81;39.19;100725.37;1691167;84;21004;-73
2022/06/18 10:20:18;;;;;;;2.98;2.60;;;;;;;35.26;38.61;100726.42;1684670;84;22072;-73
2022/06/18 10:23:06;;;;;;;3.30;2.65;;;;;;;35.68;39.19;100716.28;1682638;83;21058;-73
2022/06/18 10:25:53;;;;;;;2.65;2.42;;;;;;;35.40;40.01;100716.86;1656137;84;21153;-73
2022/06/18 10:28:41;;;;;;;5.03;2.72;;;;;;;35.58;38.75;100713.31;1637302;86;21080;-73
2022/06/18 10:31:31;;;;;;;2.67;2.47;;;;;;;35.31;38.90;100711.83;1689222;84;21145;-73
2022/06/18 10:34:35;;;;;;;4.85;2.50;;;;;;;35.67;39.90;100702.09;1666065;83;21044;-74
2022/06/18 10:37:30;;;;;;;4.20;2.80;;;;;;;36.20;38.97;100700.96;1690210;83;21086;-73
2022/06/18 10:40:22;;;;;;;4.20;2.77;;;;;;;35.94;37.96;100708.89;1686895;84;21052;-73
2022/06/18 10:42:58;;;;;;;3.20;2.62;;;;;;;35.64;38.14;100703.83;1687413;84;21043;-73
2022/06/18 10:45:42;;;;;;;4.15;2.52;;;;;;;35.19;39.93;100716.84;1691563;84;21138;-73
2022/06/18 10:48:14;;;;;;;2.62;2.42;;;;;;;35.48;39.21;100710.69;1693781;83;21039;-73
2022/06/18 10:50:47;;;;;;;5.92;2.60;;;;;;;35.83;37.73;100712.66;1694120;84;20999;-74
2022/06/18 10:53:16;;;;;;;;;;;;;;;36.03;40.36;100711.00;1694780;83;21062;-74
2022/06/18 10:55:44;;;;;;;3.65;2.50;;;;;;;36.33;39.25;100707.41;1690859;84;20154;-74
2022/06/18 10:58:16;;;;;;;3.95;2.35;;;;;;;36.43;37.97;100714.87;1690198;83;21122;-74
2022/06/18 11:00:57;;;;;;;4.85;2.17;;;;;;;36.02;38.74;100717.39;1691596;84;21045;-73
2022/06/18 11:03:29;;;;;;;2.87;2.08;;;;;;;35.95;38.08;100715.86;1689132;83;21039;-74
2022/06/18 11:05:59;;;;;;;5.17;2.70;;;;;;;35.84;38.14;100716.14;1684674;83;21131;-74
2022/06/18 11:08:30;;;;;;;2.65;2.20;;;;;;;36.25;39.82;100713.12;1693827;84;22273;-74
2022/06/18 11:11:07;;;;;;;3.12;2.33;;;;;;;36.36;38.69;100708.83;1695825;84;21051;-74
2022/06/18 11:13:44;;;;;;;5.35;2.30;;;;;;;36.24;38.01;100715.52;1694314;83;21594;-73
2022/06/18 11:16:28;;;;;;;3.12;2.17;;;;;;;35.55;38.04;100709.23;1687559;84;21124;-74
2022/06/18 11:19:01;;;;;;;4.80;2.30;;;;;;;35.17;39.14;100713.05;1689991;83;21598;-74
2022/06/18 11:21:45;;;;;;;3.10;2.12;;;;;;;35.10;38.85;100702.41;1688858;83;21547;-73
2022/06/18 11:24:17;;;;;;;7.85;4.45;;;;;;;35.22;40.29;100709.19;1669180;84;21089;-74
2022/06/18 11:26:56;;;;;;;15.08;10.20;;;;;;;34.31;41.77;100712.09;1689885;84;21110;-74
2022/06/18 11:29:33;;;;;;;16.87;12.63;;;;;;;32.92;43.67;100705.97;1691675;83;21577;-73
2022/06/18 11:32:18;;;;;;;17.87;13.20;;;;;;;33.25;43.92;100702.90;1693686;84;21109;-73
2022/06/18 11:34:53;;;;;;;18.80;13.15;;;;;;;33.10;44.00;100696.52;1689201;84;21095;-74
2022/06/18 11:37:27;;;;;;;17.42;11.57;;;;;;;33.16;43.81;100694.85;1685702;84;21246;-73
2022/06/18 11:40:09;;;;;;;12.10;8.45;;;;;;;33.71;43.40;100691.98;1691655;83;21137;-73
2022/06/18 11:42:53;;;;;;;6.08;3.50;;;;;;;33.86;44.17;100694.36;1691211;84;21043;-74
2022/06/18 11:45:44;;;;;;;3.67;2.25;;;;;;;34.10;43.51;100697.23;1680619;84;21067;-73
2022/06/18 11:48:47;;;;;;;2.62;2.20;;;;;;;33.18;44.23;100695.46;1688540;83;21078;-73
2022/06/18 11:51:26;;;;;;;2.35;1.98;;;;;;;33.33;44.21;100692.82;1649364;85;21589;-73
2022/06/18 11:54:17;;;;;;;2.80;1.90;;;;;;;33.12;44.45;100700.59;1636392;86;21097;-74
2022/06/18 11:56:55;;;;;;;4.17;2.52;;;;;;;33.52;45.92;100695.06;1669451;84;21495;-74
2022/06/18 11:59:52;;;;;;;4.58;2.40;;;;;;;32.90;46.76;100700.03;1691735;84;21058;-73
2022/06/18 12:02:29;;;;;;;3.70;2.50;;;;;;;32.82;46.98;100712.27;1687842;84;21031;-73
2022/06/18 12:05:10;;;;;;;3.92;2.33;;;;;;;32.38;48.49;100716.41;1688088;84;21050;-73
2022/06/18 12:07:54;;;;;;;4.67;2.70;;;;;;;32.44;48.36;100718.28;1678450;84;21091;-73
2022/06/18 12:10:29;;;;;;;4.30;2.60;;;;;;;32.90;48.19;100715.22;1689973;83;21103;-74
2022/06/18 12:13:17;;;;;;;2.62;2.30;;;;;;;33.02;47.44;100716.20;1684547;83;21153;-73